Time,TemperatureF,DewpointF,PressureIn,WindDirection,WindDirectionDegrees,WindSpeedMPH,WindSpeedGustMPH,Humidity,HourlyPrecipIn,Conditions,Clouds,dailyrainin,SolarRadiationWatts/m^2,SoftwareType,DateUTC
2013-01-24 00:08:00,-0.9,-6.0,30.40,North,355,3.0,11.0,80,0.00,,,0.00,0,weatherlink.com 1.10,2013-01-24 05:08:00,
2013-01-24 00:23:00,-1.2,-7.0,30.41,NNW,338,6.0,12.0,78,0.00,,,0.00,0,weatherlink.com 1.10,2013-01-24 05:23:00,
2013-01-24 00:38:00,-1.9,-7.0,30.41,NE,42,3.0,7.0,77,0.00,,,0.00,0,weatherlink.com 1.10,2013-01-24 05:38:00,
2013-01-24 00:53:00,-2.3,-8.0,30.42,NNE,18,3.0,9.0,77,0.00,,,0.00,0,weatherlink.com 1.10,2013-01-24 05:53:00,
2013-01-24 01:08:00,-2.9,-8.0,30.43,North,9,5.0,11.0,77,0.00,,,0.00,0,weatherlink.com 1.10,2013-01-24 06:08:00,
2013-01-24 01:23:00,-3.5,-9.0,30.44,NE,42,2.0,13.0,76,0.00,,,0.00,0,weatherlink.com 1.10,2013-01-24 06:23:00,
2013-01-24 01:38:00,-4.1,-10.0,30.45,NNE,18,4.0,12.0,76,0.00,,,0.00,0,weatherlink.com 1.10,2013-01-24 06:38:00,
2013-01-24 01:53:00,-4.5,-10.0,30.46,NNE,31,17.0,17.0,76,0.00,,,0.00,0,weatherlink.com 1.10,2013-01-24 06:53:00,
2013-01-24 02:08:00,-5.0,-11.0,30.47,NE,40,3.0,13.0,74,0.00,,,0.00,0,weatherlink.com 1.10,2013-01-24 07:08:00,
2013-01-24 02:24:00,-5.4,-12.0,30.48,North,355,5.0,13.0,74,0.00,,,0.00,0,weatherlink.com 1.10,2013-01-24 07:24:00,
2013-01-24 02:39:00,-5.6,-12.0,30.50,NNE,15,5.0,11.0,73,0.00,,,0.00,0,weatherlink.com 1.10,2013-01-24 07:39:00,
2013-01-24 02:54:00,-5.9,-12.0,30.51,North,350,5.0,13.0,73,0.00,,,0.00,0,weatherlink.com 1.10,2013-01-24 07:54:00,
2013-01-24 03:09:00,-6.5,-13.0,30.53,North,350,3.0,7.0,73,0.00,,,0.00,0,weatherlink.com 1.10,2013-01-24 08:09:00,
2013-01-24 03:24:00,-7.0,-14.0,30.54,ENE,60,4.0,6.0,73,0.00,,,0.00,0,weatherlink.com 1.10,2013-01-24 08:24:00,
2013-01-24 03:39:00,-7.3,-14.0,30.55,North,355,0.0,8.0,73,0.00,,,0.00,0,weatherlink.com 1.10,2013-01-24 08:39:00,
2013-01-24 03:54:00,-8.0,-14.0,30.55,NE,48,0.0,5.0,73,0.00,,,0.00,0,weatherlink.com 1.10,2013-01-24 08:54:00,
2013-01-24 04:09:00,-8.7,-15.0,30.57,NW,325,0.0,4.0,73,0.00,,,0.00,0,weatherlink.com 1.10,2013-01-24 09:09:00,
2013-01-24 04:24:00,-10.0,-16.0,30.59,NW,325,1.0,1.0,73,0.00,,,0.00,0,weatherlink.com 1.10,2013-01-24 09:24:00,
2013-01-24 04:39:00,-10.1,-16.0,30.59,NW,306,1.0,4.0,75,0.00,,,0.00,0,weatherlink.com 1.10,2013-01-24 09:39:00,
2013-01-24 04:54:00,-9.5,-15.0,30.60,NNW,336,0.0,3.0,75,0.00,,,0.00,0,weatherlink.com 1.10,2013-01-24 09:54:00,
2013-01-24 05:09:00,-11.1,-17.0,30.61,NNW,336,0.0,1.0,74,0.00,,,0.00,0,weatherlink.com 1.10,2013-01-24 10:09:00,
2013-01-24 05:24:00,-12.5,-18.0,30.61,NNW,336,0.0,0.0,75,0.00,,,0.00,0,weatherlink.com 1.10,2013-01-24 10:24:00,
2013-01-24 05:40:00,-13.4,-19.0,30.62,NNW,336,0.0,1.0,76,0.00,,,0.00,0,weatherlink.com 1.10,2013-01-24 10:40:00,
2013-01-24 05:55:00,-13.5,-19.0,30.62,NNW,336,0.0,2.0,77,0.00,,,0.00,0,weatherlink.com 1.10,2013-01-24 10:55:00,
2013-01-24 06:10:00,-14.5,-20.0,30.62,NNW,336,0.0,0.0,76,0.00,,,0.00,0,weatherlink.com 1.10,2013-01-24 11:10:00,
2013-01-24 06:25:00,-15.1,-20.0,30.64,NNW,336,0.0,0.0,77,0.00,,,0.00,0,weatherlink.com 1.10,2013-01-24 11:25:00,
2013-01-24 06:40:00,-15.3,-18.0,30.65,NNW,336,0.0,1.0,89,0.00,,,0.00,0,weatherlink.com 1.10,2013-01-24 11:40:00,
2013-01-24 06:55:00,-15.6,-21.0,30.66,NNW,336,0.0,0.0,77,0.00,,,0.00,0,weatherlink.com 1.10,2013-01-24 11:55:00,
2013-01-24 07:10:00,-15.7,-21.0,30.66,NNW,336,0.0,0.0,77,0.00,,,0.00,0,weatherlink.com 1.10,2013-01-24 12:10:00,
2013-01-24 07:25:00,-15.5,-20.0,30.67,NNW,336,0.0,1.0,78,0.00,,,0.00,0,weatherlink.com 1.10,2013-01-24 12:25:00,
2013-01-24 07:40:00,-16.2,-21.0,30.68,NNW,336,0.0,0.0,78,0.00,,,0.00,0,weatherlink.com 1.10,2013-01-24 12:40:00,
2013-01-24 07:55:00,-15.7,-21.0,30.69,NNW,336,0.0,1.0,78,0.00,,,0.00,0,weatherlink.com 1.10,2013-01-24 12:55:00,
2013-01-24 08:10:00,-15.8,-21.0,30.68,NNW,337,0.0,2.0,78,0.00,,,0.00,7,weatherlink.com 1.10,2013-01-24 13:10:00,
2013-01-24 08:25:00,-17.2,-22.0,30.70,NNW,336,0.0,0.0,77,0.00,,,0.00,12,weatherlink.com 1.10,2013-01-24 13:25:00,
2013-01-24 08:40:00,-16.8,-22.0,30.70,NNW,337,0.0,1.0,78,0.00,,,0.00,16,weatherlink.com 1.10,2013-01-24 13:40:00,
2013-01-24 08:55:00,-15.4,-20.0,30.70,NNW,336,0.0,2.0,78,0.00,,,0.00,21,weatherlink.com 1.10,2013-01-24 13:55:00,
2013-01-24 09:11:00,-14.2,-19.0,30.71,NNW,336,0.0,2.0,78,0.00,,,0.00,79,weatherlink.com 1.10,2013-01-24 14:11:00,
2013-01-24 09:26:00,-12.6,-18.0,30.71,North,360,2.0,3.0,78,0.00,,,0.00,123,weatherlink.com 1.10,2013-01-24 14:26:00,
2013-01-24 09:42:00,-11.6,-17.0,30.72,WNW,286,0.0,3.0,78,0.00,,,0.00,165,weatherlink.com 1.10,2013-01-24 14:42:00,
2013-01-24 09:56:00,-10.1,-15.0,30.72,WNW,296,3.0,6.0,77,0.00,,,0.00,200,weatherlink.com 1.10,2013-01-24 14:56:00,
2013-01-24 10:11:00,-9.8,-17.0,30.73,West,277,5.0,8.0,71,0.00,,,0.00,241,weatherlink.com 1.10,2013-01-24 15:11:00,
2013-01-24 10:26:00,-9.0,-17.0,30.74,West,263,5.0,6.0,69,0.00,,,0.00,274,weatherlink.com 1.10,2013-01-24 15:26:00,
2013-01-24 10:41:00,-7.3,-16.0,30.74,NW,319,1.0,5.0,67,0.00,,,0.00,308,weatherlink.com 1.10,2013-01-24 15:41:00,
2013-01-24 10:56:00,-8.2,-16.0,30.75,WNW,294,5.0,7.0,68,0.00,,,0.00,336,weatherlink.com 1.10,2013-01-24 15:56:00,
2013-01-24 11:11:00,-7.5,-16.0,30.75,West,270,6.0,8.0,67,0.00,,,0.00,357,weatherlink.com 1.10,2013-01-24 16:11:00,
2013-01-24 11:26:00,-6.3,-15.0,30.74,West,276,5.0,7.0,67,0.00,,,0.00,380,weatherlink.com 1.10,2013-01-24 16:26:00,
2013-01-24 11:41:00,-5.5,-14.0,30.73,NW,311,4.0,5.0,66,0.00,,,0.00,404,weatherlink.com 1.10,2013-01-24 16:41:00,
2013-01-24 11:57:00,-3.7,-13.0,30.72,West,277,3.0,6.0,63,0.00,,,0.00,420,weatherlink.com 1.10,2013-01-24 16:57:00,
2013-01-24 12:11:00,-2.7,-13.0,30.71,NW,311,4.0,5.0,62,0.00,,,0.00,434,weatherlink.com 1.10,2013-01-24 17:11:00,
2013-01-24 12:26:00,-2.4,-12.0,30.71,WNW,285,4.0,6.0,63,0.00,,,0.00,441,weatherlink.com 1.10,2013-01-24 17:26:00,
2013-01-24 12:42:00,-1.9,-11.0,30.70,WNW,287,4.0,8.0,64,0.00,,,0.00,443,weatherlink.com 1.10,2013-01-24 17:42:00,
2013-01-24 12:57:00,0.0,-10.0,30.70,WNW,294,5.0,6.0,62,0.00,,,0.00,441,weatherlink.com 1.10,2013-01-24 17:57:00,
2013-01-24 13:12:00,1.1,-10.0,30.70,WNW,298,4.0,6.0,61,0.00,,,0.00,438,weatherlink.com 1.10,2013-01-24 18:12:00,
2013-01-24 13:27:00,2.0,-9.0,30.70,WNW,298,5.0,7.0,61,0.00,,,0.00,431,weatherlink.com 1.10,2013-01-24 18:27:00,
2013-01-24 13:42:00,2.6,-9.0,30.69,WNW,303,7.0,10.0,59,0.00,,,0.00,417,weatherlink.com 1.10,2013-01-24 18:42:00,
2013-01-24 13:57:00,3.6,-8.0,30.69,WNW,300,5.0,7.0,58,0.00,,,0.00,366,weatherlink.com 1.10,2013-01-24 18:57:00,
2013-01-24 14:12:00,4.9,-7.0,30.68,NW,307,3.0,7.0,58,0.00,,,0.00,230,weatherlink.com 1.10,2013-01-24 19:12:00,
2013-01-24 14:27:00,2.8,-7.0,30.69,West,277,7.0,11.0,64,0.00,,,0.00,95,weatherlink.com 1.10,2013-01-24 19:27:00,
2013-01-24 14:42:00,2.8,-6.0,30.68,SW,227,7.0,9.0,66,0.00,,,0.00,69,weatherlink.com 1.10,2013-01-24 19:42:00,
2013-01-24 14:57:00,3.6,-6.0,30.69,West,271,3.0,10.0,64,0.00,,,0.00,54,weatherlink.com 1.10,2013-01-24 19:57:00,
2013-01-24 15:12:00,3.8,-6.0,30.69,WNW,298,7.0,12.0,64,0.00,,,0.00,49,weatherlink.com 1.10,2013-01-24 20:12:00,
2013-01-24 15:27:00,4.2,-6.0,30.68,WNW,292,7.0,12.0,64,0.00,,,0.00,47,weatherlink.com 1.10,2013-01-24 20:27:00,
2013-01-24 15:42:00,4.6,-5.0,30.68,West,261,8.0,11.0,65,0.00,,,0.00,44,weatherlink.com 1.10,2013-01-24 20:42:00,
2013-01-24 15:58:00,4.2,-5.0,30.67,WSW,249,2.0,7.0,66,0.00,,,0.00,46,weatherlink.com 1.10,2013-01-24 20:58:00,
2013-01-24 16:13:00,4.2,-5.0,30.68,SW,236,4.0,7.0,67,0.00,,,0.00,44,weatherlink.com 1.10,2013-01-24 21:13:00,
2013-01-24 16:28:00,4.7,-4.0,30.68,West,272,7.0,8.0,67,0.00,,,0.00,47,weatherlink.com 1.10,2013-01-24 21:28:00,
2013-01-24 16:43:00,4.6,-4.0,30.69,West,280,6.0,8.0,68,0.00,,,0.00,35,weatherlink.com 1.10,2013-01-24 21:43:00,
2013-01-24 16:58:00,4.4,-4.0,30.69,West,273,3.0,7.0,69,0.00,,,0.00,30,weatherlink.com 1.10,2013-01-24 21:58:00,
2013-01-24 17:13:00,3.6,-4.0,30.69,WNW,283,3.0,7.0,71,0.00,,,0.00,14,weatherlink.com 1.10,2013-01-24 22:13:00,
2013-01-24 17:28:00,2.9,-4.0,30.68,WNW,283,1.0,5.0,73,0.00,,,0.00,0,weatherlink.com 1.10,2013-01-24 22:28:00,
2013-01-24 17:43:00,2.2,-5.0,30.68,WNW,283,0.0,3.0,73,0.00,,,0.00,0,weatherlink.com 1.10,2013-01-24 22:43:00,
2013-01-24 17:58:00,1.2,-6.0,30.67,WNW,283,0.0,1.0,73,0.00,,,0.00,0,weatherlink.com 1.10,2013-01-24 22:58:00,
2013-01-24 18:13:00,-0.7,-7.0,30.66,WNW,283,0.0,0.0,75,0.00,,,0.00,0,weatherlink.com 1.10,2013-01-24 23:13:00,
2013-01-24 18:28:00,-2.3,-8.0,30.66,WNW,283,0.0,0.0,76,0.00,,,0.00,0,weatherlink.com 1.10,2013-01-24 23:28:00,
2013-01-24 18:43:00,-3.3,-9.0,30.66,WNW,283,0.0,0.0,77,0.00,,,0.00,0,weatherlink.com 1.10,2013-01-24 23:43:00,
2013-01-24 18:58:00,-4.5,-10.0,30.67,WNW,283,0.0,0.0,78,0.00,,,0.00,0,weatherlink.com 1.10,2013-01-24 23:58:00,
2013-01-24 19:13:00,-5.4,-11.0,30.66,WNW,283,0.0,0.0,78,0.00,,,0.00,0,weatherlink.com 1.10,2013-01-25 00:13:00,
2013-01-24 19:29:00,-6.7,-12.0,30.67,WNW,283,0.0,0.0,78,0.00,,,0.00,0,weatherlink.com 1.10,2013-01-25 00:29:00,
2013-01-24 19:44:00,-7.6,-13.0,30.67,WNW,283,0.0,0.0,78,0.00,,,0.00,0,weatherlink.com 1.10,2013-01-25 00:44:00,
2013-01-24 19:59:00,-8.7,-14.0,30.66,WNW,283,0.0,0.0,78,0.00,,,0.00,0,weatherlink.com 1.10,2013-01-25 00:59:00,
2013-01-24 20:14:00,-10.2,-15.0,30.66,WNW,283,0.0,0.0,78,0.00,,,0.00,0,weatherlink.com 1.10,2013-01-25 01:14:00,
2013-01-24 20:29:00,-10.4,-15.0,30.65,WNW,283,0.0,0.0,79,0.00,,,0.00,0,weatherlink.com 1.10,2013-01-25 01:29:00,
2013-01-24 20:44:00,-11.5,-16.0,30.65,WNW,283,0.0,0.0,79,0.00,,,0.00,0,weatherlink.com 1.10,2013-01-25 01:44:00,
2013-01-24 20:59:00,-12.4,-17.0,30.64,WNW,283,0.0,0.0,79,0.00,,,0.00,0,weatherlink.com 1.10,2013-01-25 01:59:00,
2013-01-24 21:14:00,-13.1,-18.0,30.64,WNW,283,0.0,0.0,79,0.00,,,0.00,0,weatherlink.com 1.10,2013-01-25 02:14:00,
2013-01-24 21:29:00,-13.5,-18.0,30.63,WNW,283,0.0,0.0,79,0.00,,,0.00,0,weatherlink.com 1.10,2013-01-25 02:29:00,
2013-01-24 21:44:00,-13.1,-18.0,30.63,WNW,283,0.0,0.0,79,0.00,,,0.00,0,weatherlink.com 1.10,2013-01-25 02:44:00,
2013-01-24 21:59:00,-12.6,-17.0,30.62,WNW,283,0.0,1.0,79,0.00,,,0.00,0,weatherlink.com 1.10,2013-01-25 02:59:00,
2013-01-24 22:14:00,-12.4,-17.0,30.61,WNW,283,0.0,0.0,79,0.00,,,0.00,0,weatherlink.com 1.10,2013-01-25 03:14:00,
2013-01-24 22:29:00,-11.3,-16.0,30.60,WNW,283,0.0,1.0,79,0.00,,,0.00,0,weatherlink.com 1.10,2013-01-25 03:29:00,
2013-01-24 22:44:00,-10.2,-15.0,30.60,WNW,283,1.0,1.0,79,0.00,,,0.00,0,weatherlink.com 1.10,2013-01-25 03:44:00,
2013-01-24 23:00:00,-9.3,-14.0,30.60,WNW,283,1.0,2.0,79,0.00,,,0.00,0,weatherlink.com 1.10,2013-01-25 04:00:00,
2013-01-24 23:15:00,-9.2,-14.0,30.60,WNW,283,0.0,0.0,80,0.00,,,0.00,0,weatherlink.com 1.10,2013-01-25 04:15:00,
2013-01-24 23:30:00,-8.9,-14.0,30.60,WNW,283,0.0,2.0,80,0.00,,,0.00,0,weatherlink.com 1.10,2013-01-25 04:30:00,
2013-01-24 23:45:00,-8.4,-13.0,30.60,WNW,283,0.0,2.0,80,0.00,,,0.00,0,weatherlink.com 1.10,2013-01-25 04:45:00,